sensor_id;sensor_type;location;lat;lon;timestamp;pressure;altitude;pressure_sealevel;temperature;humidity
55604;BME280;41468;48.838;9.330;2023-01-25T00:02:21;99957.72;;;3.44;97.28
55604;BME280;41468;48.838;9.330;2023-01-25T00:04:47;99949.63;;;3.44;97.16
55604;BME280;41468;48.838;9.330;2023-01-25T00:07:14;99942.59;;;3.43;96.95
55604;BME280;41468;48.838;9.330;2023-01-25T00:09:41;99942.09;;;3.41;97.04
55604;BME280;41468;48.838;9.330;2023-01-25T00:12:07;99943.66;;;3.47;96.90
55604;BME280;41468;48.838;9.330;2023-01-25T00:14:34;99940.69;;;3.44;96.65
55604;BME280;41468;48.838;9.330;2023-01-25T00:17:00;99937.16;;;3.48;96.92
55604;BME280;41468;48.838;9.330;2023-01-25T00:19:27;99928.56;;;3.41;96.47
55604;BME280;41468;48.838;9.330;2023-01-25T00:21:53;99927.75;;;3.41;97.06
55604;BME280;41468;48.838;9.330;2023-01-25T00:24:29;99927.19;;;3.44;96.44
55604;BME280;41468;48.838;9.330;2023-01-25T00:26:56;99924.75;;;3.47;96.59
55604;BME280;41468;48.838;9.330;2023-01-25T00:29:22;99914.78;;;3.43;96.67
55604;BME280;41468;48.838;9.330;2023-01-25T00:37:17;99942.63;;;3.38;97.15
55604;BME280;41468;48.838;9.330;2023-01-25T00:39:47;99940.25;;;3.31;97.22
55604;BME280;41468;48.838;9.330;2023-01-25T00:42:15;99939.69;;;3.35;97.58
55604;BME280;41468;48.838;9.330;2023-01-25T00:44:43;99930.25;;;3.32;97.48
55604;BME280;41468;48.838;9.330;2023-01-25T00:47:10;99927.03;;;3.25;97.68
55604;BME280;41468;48.838;9.330;2023-01-25T00:49:38;99924.28;;;3.35;97.71
55604;BME280;41468;48.838;9.330;2023-01-25T00:52:08;99915.06;;;3.41;97.24
55604;BME280;41468;48.838;9.330;2023-01-25T00:54:35;99919.91;;;3.44;96.80
55604;BME280;41468;48.838;9.330;2023-01-25T00:57:02;99917.81;;;3.36;96.84
55604;BME280;41468;48.838;9.330;2023-01-25T00:59:28;99917.25;;;3.39;97.01
55604;BME280;41468;48.838;9.330;2023-01-25T01:01:55;99915.56;;;3.43;96.59
55604;BME280;41468;48.838;9.330;2023-01-25T01:04:22;99914.34;;;3.30;96.94
55604;BME280;41468;48.838;9.330;2023-01-25T01:06:52;99914.59;;;3.29;97.59
55604;BME280;41468;48.838;9.330;2023-01-25T01:09:20;99910.03;;;3.24;97.67
55604;BME280;41468;48.838;9.330;2023-01-25T01:11:47;99913.81;;;3.28;97.45
55604;BME280;41468;48.838;9.330;2023-01-25T01:14:14;99914.09;;;3.22;97.92
55604;BME280;41468;48.838;9.330;2023-01-25T01:16:41;99907.91;;;3.21;97.57
55604;BME280;41468;48.838;9.330;2023-01-25T01:19:07;99908.47;;;3.18;98.22
55604;BME280;41468;48.838;9.330;2023-01-25T01:21:34;99908.69;;;3.22;98.50
55604;BME280;41468;48.838;9.330;2023-01-25T01:24:00;99913.09;;;3.13;98.49
55604;BME280;41468;48.838;9.330;2023-01-25T01:26:27;99908.22;;;3.15;98.41
55604;BME280;41468;48.838;9.330;2023-01-25T01:28:54;99910.91;;;3.15;98.97
55604;BME280;41468;48.838;9.330;2023-01-25T01:31:22;99911.41;;;3.22;98.24
55604;BME280;41468;48.838;9.330;2023-01-25T01:33:50;99914.41;;;3.20;97.67
55604;BME280;41468;48.838;9.330;2023-01-25T01:36:20;99912.53;;;3.16;98.15
55604;BME280;41468;48.838;9.330;2023-01-25T01:38:47;99906.88;;;3.12;98.88
55604;BME280;41468;48.838;9.330;2023-01-25T01:41:15;99910.91;;;3.15;98.46
55604;BME280;41468;48.838;9.330;2023-01-25T01:43:42;99906.63;;;3.08;99.57
55604;BME280;41468;48.838;9.330;2023-01-25T01:46:34;99904.19;;;3.12;99.15
55604;BME280;41468;48.838;9.330;2023-01-25T01:49:16;99906.34;;;3.10;99.27
55604;BME280;41468;48.838;9.330;2023-01-25T01:54:25;99909.56;;;3.17;98.76
55604;BME280;41468;48.838;9.330;2023-01-25T01:56:57;99915.72;;;3.23;98.43
55604;BME280;41468;48.838;9.330;2023-01-25T02:02:15;99919.06;;;3.04;99.86
55604;BME280;41468;48.838;9.330;2023-01-25T02:04:46;99920.09;;;3.08;100.00
55604;BME280;41468;48.838;9.330;2023-01-25T02:09:43;99906.28;;;3.20;98.84
55604;BME280;41468;48.838;9.330;2023-01-25T02:12:11;99907.13;;;3.16;99.23
55604;BME280;41468;48.838;9.330;2023-01-25T02:14:45;99913.28;;;3.21;98.87
55604;BME280;41468;48.838;9.330;2023-01-25T02:17:13;99913.31;;;3.16;99.35
55604;BME280;41468;48.838;9.330;2023-01-25T02:19:56;99906.53;;;3.24;98.69
55604;BME280;41468;48.838;9.330;2023-01-25T02:25:21;99902.81;;;3.15;99.37
55604;BME280;41468;48.838;9.330;2023-01-25T02:27:52;99902.81;;;3.15;99.64
55604;BME280;41468;48.838;9.330;2023-01-25T02:30:21;99897.13;;;3.16;99.48
55604;BME280;41468;48.838;9.330;2023-01-25T02:32:48;99896.84;;;3.18;99.64
55604;BME280;41468;48.838;9.330;2023-01-25T02:37:45;99901.13;;;3.24;98.77
55604;BME280;41468;48.838;9.330;2023-01-25T02:40:12;99897.34;;;3.25;98.89
55604;BME280;41468;48.838;9.330;2023-01-25T02:42:41;99890.38;;;3.19;99.08
55604;BME280;41468;48.838;9.330;2023-01-25T02:45:10;99892.47;;;3.27;98.61
55604;BME280;41468;48.838;9.330;2023-01-25T02:47:39;99894.59;;;3.30;98.01
55604;BME280;41468;48.838;9.330;2023-01-25T02:50:07;99886.25;;;3.31;97.90
55604;BME280;41468;48.838;9.330;2023-01-25T02:52:34;99887.38;;;3.25;98.43
55604;BME280;41468;48.838;9.330;2023-01-25T02:55:01;99891.41;;;3.28;98.18
55604;BME280;41468;48.838;9.330;2023-01-25T02:57:27;99881.66;;;3.27;98.05
55604;BME280;41468;48.838;9.330;2023-01-25T02:59:54;99882.22;;;3.29;97.26
55604;BME280;41468;48.838;9.330;2023-01-25T03:02:20;99868.44;;;3.30;96.92
55604;BME280;41468;48.838;9.330;2023-01-25T03:04:47;99865.97;;;3.34;96.28
55604;BME280;41468;48.838;9.330;2023-01-25T03:07:14;99866.50;;;3.36;95.43
55604;BME280;41468;48.838;9.330;2023-01-25T03:09:41;99870.28;;;3.35;95.60
55604;BME280;41468;48.838;9.330;2023-01-25T03:12:07;99863.28;;;3.34;93.99
55604;BME280;41468;48.838;9.330;2023-01-25T03:14:34;99860.53;;;3.39;92.74
55604;BME280;41468;48.838;9.330;2023-01-25T03:17:01;99860.56;;;3.34;92.87
55604;BME280;41468;48.838;9.330;2023-01-25T03:19:27;99855.13;;;3.39;92.46
55604;BME280;41468;48.838;9.330;2023-01-25T03:21:54;99854.53;;;3.47;91.57
55604;BME280;41468;48.838;9.330;2023-01-25T03:24:21;99852.41;;;3.44;91.20
55604;BME280;41468;48.838;9.330;2023-01-25T03:26:47;99848.06;;;3.43;91.58
55604;BME280;41468;48.838;9.330;2023-01-25T03:29:32;99849.94;;;3.48;91.60
55604;BME280;41468;48.838;9.330;2023-01-25T03:31:59;99850.75;;;3.43;90.22
55604;BME280;41468;48.838;9.330;2023-01-25T03:34:26;99854.84;;;3.41;90.83
55604;BME280;41468;48.838;9.330;2023-01-25T03:36:52;99843.81;;;3.37;91.17
55604;BME280;41468;48.838;9.330;2023-01-25T03:39:19;99848.63;;;3.40;91.11
55604;BME280;41468;48.838;9.330;2023-01-25T03:41:46;99846.28;;;3.34;91.75
55604;BME280;41468;48.838;9.330;2023-01-25T03:44:12;99847.34;;;3.32;91.44
55604;BME280;41468;48.838;9.330;2023-01-25T03:46:40;99844.44;;;3.24;92.20
55604;BME280;41468;48.838;9.330;2023-01-25T03:49:07;99850.63;;;3.24;91.03
55604;BME280;41468;48.838;9.330;2023-01-25T03:51:34;99844.41;;;3.29;91.47
55604;BME280;41468;48.838;9.330;2023-01-25T03:54:01;99844.81;;;3.12;90.97
55604;BME280;41468;48.838;9.330;2023-01-25T03:56:27;99845.31;;;3.14;91.25
55604;BME280;41468;48.838;9.330;2023-01-25T03:58:54;99836.38;;;3.19;91.73
55604;BME280;41468;48.838;9.330;2023-01-25T04:01:21;99836.34;;;3.24;91.01
55604;BME280;41468;48.838;9.330;2023-01-25T04:03:48;99836.91;;;3.21;91.85
55604;BME280;41468;48.838;9.330;2023-01-25T04:06:14;99841.75;;;3.24;90.89
55604;BME280;41468;48.838;9.330;2023-01-25T04:08:41;99849.59;;;3.20;90.59
55604;BME280;41468;48.838;9.330;2023-01-25T04:11:08;99842.25;;;3.31;90.79
55604;BME280;41468;48.838;9.330;2023-01-25T04:13:36;99840.59;;;3.30;90.91
55604;BME280;41468;48.838;9.330;2023-01-25T04:16:07;99837.41;;;3.28;91.36
55604;BME280;41468;48.838;9.330;2023-01-25T04:18:35;99845.78;;;3.26;91.00
55604;BME280;41468;48.838;9.330;2023-01-25T04:21:01;99841.38;;;3.36;90.97
55604;BME280;41468;48.838;9.330;2023-01-25T04:23:28;99835.13;;;3.40;90.93
55604;BME280;41468;48.838;9.330;2023-01-25T04:25:56;99831.09;;;3.38;90.14
55604;BME280;41468;48.838;9.330;2023-01-25T04:28:23;99831.09;;;3.38;89.99
55604;BME280;41468;48.838;9.330;2023-01-25T04:30:52;99828.97;;;3.35;89.99
55604;BME280;41468;48.838;9.330;2023-01-25T04:33:19;99829.31;;;3.28;90.70
55604;BME280;41468;48.838;9.330;2023-01-25T04:35:46;99832.25;;;3.31;90.74
55604;BME280;41468;48.838;9.330;2023-01-25T04:38:13;99826.53;;;3.33;90.46
55604;BME280;41468;48.838;9.330;2023-01-25T04:40:40;99821.66;;;3.35;90.07
55604;BME280;41468;48.838;9.330;2023-01-25T04:43:08;99823.84;;;3.33;90.08
55604;BME280;41468;48.838;9.330;2023-01-25T04:45:35;99823.31;;;3.36;90.79
55604;BME280;41468;48.838;9.330;2023-01-25T04:48:03;99817.94;;;3.31;89.96
55604;BME280;41468;48.838;9.330;2023-01-25T04:50:30;99822.78;;;3.34;89.60
55604;BME280;41468;48.838;9.330;2023-01-25T04:52:57;99824.34;;;3.40;89.21
55604;BME280;41468;48.838;9.330;2023-01-25T04:55:24;99828.22;;;3.29;89.44
55604;BME280;41468;48.838;9.330;2023-01-25T04:57:50;99831.75;;;3.24;89.86
55604;BME280;41468;48.838;9.330;2023-01-25T05:00:17;99819.63;;;3.22;90.34
55604;BME280;41468;48.838;9.330;2023-01-25T05:02:44;99824.97;;;3.27;90.88
55604;BME280;41468;48.838;9.330;2023-01-25T05:05:12;99834.19;;;3.26;89.88
55604;BME280;41468;48.838;9.330;2023-01-25T05:07:39;99820.47;;;3.17;90.56
55604;BME280;41468;48.838;9.330;2023-01-25T05:10:06;99821.28;;;3.18;91.12
55604;BME280;41468;48.838;9.330;2023-01-25T05:12:33;99828.28;;;3.19;90.36
55604;BME280;41468;48.838;9.330;2023-01-25T05:15:00;99823.38;;;3.26;89.55
55604;BME280;41468;48.838;9.330;2023-01-25T05:17:26;99826.38;;;3.19;90.14
55604;BME280;41468;48.838;9.330;2023-01-25T05:20:00;99819.19;;;3.09;90.73
55604;BME280;41468;48.838;9.330;2023-01-25T05:22:26;99821.13;;;3.04;91.95
55604;BME280;41468;48.838;9.330;2023-01-25T05:24:53;99808.22;;;2.96;91.22
55604;BME280;41468;48.838;9.330;2023-01-25T05:27:20;99805.47;;;3.01;91.63
55604;BME280;41468;48.838;9.330;2023-01-25T05:29:47;99807.34;;;3.00;91.53
55604;BME280;41468;48.838;9.330;2023-01-25T05:32:16;99808.72;;;2.98;92.09
55604;BME280;41468;48.838;9.330;2023-01-25T05:34:44;99805.19;;;3.02;92.19
55604;BME280;41468;48.838;9.330;2023-01-25T05:37:13;99813.03;;;3.04;92.30
55604;BME280;41468;48.838;9.330;2023-01-25T05:39:40;99804.09;;;3.03;92.29
55604;BME280;41468;48.838;9.330;2023-01-25T05:42:15;99812.69;;;3.10;92.38
55604;BME280;41468;48.838;9.330;2023-01-25T05:44:43;99812.91;;;3.14;91.33
55604;BME280;41468;48.838;9.330;2023-01-25T05:47:14;99807.44;;;3.24;91.43
55604;BME280;41468;48.838;9.330;2023-01-25T05:49:41;99808.31;;;3.20;91.71
55604;BME280;41468;48.838;9.330;2023-01-25T05:52:15;99806.66;;;3.24;90.38
55604;BME280;41468;48.838;9.330;2023-01-25T05:54:42;99801.81;;;3.21;90.24
55604;BME280;41468;48.838;9.330;2023-01-25T05:57:13;99792.16;;;3.15;90.62
55604;BME280;41468;48.838;9.330;2023-01-25T05:59:40;99796.53;;;3.05;92.01
55604;BME280;41468;48.838;9.330;2023-01-25T06:02:07;99794.84;;;3.15;91.31
55604;BME280;41468;48.838;9.330;2023-01-25T06:04:33;99791.28;;;3.19;90.90
55604;BME280;41468;48.838;9.330;2023-01-25T06:07:00;99794.31;;;3.13;90.75
55604;BME280;41468;48.838;9.330;2023-01-25T06:09:27;99791.28;;;3.19;90.66
55604;BME280;41468;48.838;9.330;2023-01-25T06:11:53;99795.91;;;3.14;89.99
55604;BME280;41468;48.838;9.330;2023-01-25T06:14:20;99796.97;;;3.18;90.65
55604;BME280;41468;48.838;9.330;2023-01-25T06:16:51;99787.38;;;3.06;90.46
55604;BME280;41468;48.838;9.330;2023-01-25T06:19:18;99783.88;;;3.01;91.24
55604;BME280;41468;48.838;9.330;2023-01-25T06:21:44;99793.28;;;3.03;90.70
55604;BME280;41468;48.838;9.330;2023-01-25T06:24:11;99783.75;;;3.16;90.62
55604;BME280;41468;48.838;9.330;2023-01-25T06:26:37;99785.69;;;3.10;90.56
55604;BME280;41468;48.838;9.330;2023-01-25T06:29:05;99783.69;;;3.26;90.19
55604;BME280;41468;48.838;9.330;2023-01-25T06:31:32;99779.53;;;3.39;90.20
55604;BME280;41468;48.838;9.330;2023-01-25T06:34:00;99780.94;;;3.31;89.49
55604;BME280;41468;48.838;9.330;2023-01-25T06:36:29;99780.09;;;3.36;88.48
55604;BME280;41468;48.838;9.330;2023-01-25T06:38:56;99790.38;;;3.34;88.04
55604;BME280;41468;48.838;9.330;2023-01-25T06:41:23;99791.53;;;3.23;89.04
55604;BME280;41468;48.838;9.330;2023-01-25T06:43:51;99784.66;;;3.36;88.87
55604;BME280;41468;48.838;9.330;2023-01-25T06:46:18;99783.34;;;3.33;87.60
55604;BME280;41468;48.838;9.330;2023-01-25T06:48:45;99781.69;;;3.37;86.36
55604;BME280;41468;48.838;9.330;2023-01-25T06:51:14;99782.50;;;3.38;86.31
55604;BME280;41468;48.838;9.330;2023-01-25T06:53:42;99771.06;;;3.46;86.02
55604;BME280;41468;48.838;9.330;2023-01-25T06:56:20;99770.56;;;3.44;85.51
55604;BME280;41468;48.838;9.330;2023-01-25T06:58:48;99761.06;;;3.46;85.59
55604;BME280;41468;48.838;9.330;2023-01-25T07:01:20;99767.34;;;3.42;86.75
55604;BME280;41468;48.838;9.330;2023-01-25T07:03:49;99764.09;;;3.45;85.50
55604;BME280;41468;48.838;9.330;2023-01-25T07:06:16;99760.84;;;3.43;86.25
55604;BME280;41468;48.838;9.330;2023-01-25T07:08:43;99761.94;;;3.42;87.31
55604;BME280;41468;48.838;9.330;2023-01-25T07:11:11;99760.59;;;3.44;85.86
55604;BME280;41468;48.838;9.330;2023-01-25T07:13:43;99770.91;;;3.37;85.50
55604;BME280;41468;48.838;9.330;2023-01-25T07:16:16;99764.13;;;3.40;86.40
55604;BME280;41468;48.838;9.330;2023-01-25T07:18:43;99760.09;;;3.37;86.82
55604;BME280;41468;48.838;9.330;2023-01-25T07:21:18;99766.06;;;3.34;87.30
55604;BME280;41468;48.838;9.330;2023-01-25T07:23:49;99762.78;;;3.37;86.54
55604;BME280;41468;48.838;9.330;2023-01-25T07:26:23;99766.88;;;3.35;87.20
55604;BME280;41468;48.838;9.330;2023-01-25T07:28:51;99760.59;;;3.44;87.03
55604;BME280;41468;48.838;9.330;2023-01-25T07:31:19;99761.69;;;3.38;87.27
55604;BME280;41468;48.838;9.330;2023-01-25T07:33:50;99747.16;;;3.34;86.84
55604;BME280;41468;48.838;9.330;2023-01-25T07:36:17;99747.66;;;3.41;87.70
55604;BME280;41468;48.838;9.330;2023-01-25T07:38:44;99749.13;;;3.28;87.31
55604;BME280;41468;48.838;9.330;2023-01-25T07:41:11;99749.88;;;3.34;88.06
55604;BME280;41468;48.838;9.330;2023-01-25T07:43:38;99746.56;;;3.42;87.93
55604;BME280;41468;48.838;9.330;2023-01-25T07:46:07;99747.88;;;3.45;86.94
55604;BME280;41468;48.838;9.330;2023-01-25T07:48:37;99753.16;;;3.31;87.77
55604;BME280;41468;48.838;9.330;2023-01-25T07:51:07;99752.78;;;3.38;87.26
55604;BME280;41468;48.838;9.330;2023-01-25T07:53:50;99755.69;;;3.46;85.99
55604;BME280;41468;48.838;9.330;2023-01-25T07:56:19;99747.66;;;3.41;86.45
55604;BME280;41468;48.838;9.330;2023-01-25T07:58:46;99749.56;;;3.36;87.53
55604;BME280;41468;48.838;9.330;2023-01-25T08:01:14;99748.81;;;3.30;87.30
55604;BME280;41468;48.838;9.330;2023-01-25T08:03:42;99748.78;;;3.35;87.29
55604;BME280;41468;48.838;9.330;2023-01-25T08:06:12;99742.84;;;3.33;87.80
55604;BME280;41468;48.838;9.330;2023-01-25T08:08:47;99752.56;;;3.34;87.86
55604;BME280;41468;48.838;9.330;2023-01-25T08:11:18;99748.72;;;3.40;87.90
55604;BME280;41468;48.838;9.330;2023-01-25T08:13:46;99749.78;;;3.44;86.57
55604;BME280;41468;48.838;9.330;2023-01-25T08:16:14;99749.78;;;3.44;86.26
55604;BME280;41468;48.838;9.330;2023-01-25T08:18:40;99753.81;;;3.47;86.97
55604;BME280;41468;48.838;9.330;2023-01-25T08:21:07;99756.59;;;3.37;86.77
55604;BME280;41468;48.838;9.330;2023-01-25T08:23:34;99757.84;;;3.49;86.79
55604;BME280;41468;48.838;9.330;2023-01-25T08:26:03;99764.59;;;3.47;86.59
55604;BME280;41468;48.838;9.330;2023-01-25T08:28:30;99763.72;;;3.51;86.54
55604;BME280;41468;48.838;9.330;2023-01-25T08:31:11;99762.19;;;3.45;85.95
55604;BME280;41468;48.838;9.330;2023-01-25T08:33:38;99752.75;;;3.43;85.10
55604;BME280;41468;48.838;9.330;2023-01-25T08:36:05;99761.59;;;3.48;85.41
55604;BME280;41468;48.838;9.330;2023-01-25T08:38:35;99763.56;;;3.43;85.76
55604;BME280;41468;48.838;9.330;2023-01-25T08:43:32;99749.44;;;3.51;85.34
55604;BME280;41468;48.838;9.330;2023-01-25T08:45:59;99746.41;;;3.58;85.34
55604;BME280;41468;48.838;9.330;2023-01-25T08:48:26;99741.91;;;3.48;84.61
55604;BME280;41468;48.838;9.330;2023-01-25T08:50:53;99734.06;;;3.46;84.06
55604;BME280;41468;48.838;9.330;2023-01-25T08:53:27;99738.06;;;3.54;84.94
55604;BME280;41468;48.838;9.330;2023-01-25T08:55:54;99731.84;;;3.53;84.67
55604;BME280;41468;48.838;9.330;2023-01-25T08:58:21;99733.13;;;3.61;84.68
55604;BME280;41468;48.838;9.330;2023-01-25T09:00:48;99725.28;;;3.60;83.63
55604;BME280;41468;48.838;9.330;2023-01-25T09:03:15;99723.34;;;3.65;84.84
55604;BME280;41468;48.838;9.330;2023-01-25T09:05:43;99722.53;;;3.65;84.51
55604;BME280;41468;48.838;9.330;2023-01-25T09:08:10;99726.81;;;3.71;84.17
55604;BME280;41468;48.838;9.330;2023-01-25T09:10:37;99717.66;;;3.67;83.71
55604;BME280;41468;48.838;9.330;2023-01-25T09:13:03;99723.16;;;3.57;83.25
55604;BME280;41468;48.838;9.330;2023-01-25T09:15:33;99728.81;;;3.60;82.07
55604;BME280;41468;48.838;9.330;2023-01-25T09:18:00;99730.16;;;3.63;82.57
55604;BME280;41468;48.838;9.330;2023-01-25T09:20:27;99722.78;;;3.68;82.53
55604;BME280;41468;48.838;9.330;2023-01-25T09:22:58;99729.56;;;3.66;83.01
55604;BME280;41468;48.838;9.330;2023-01-25T09:25:24;99727.19;;;3.59;83.73
55604;BME280;41468;48.838;9.330;2023-01-25T09:28:01;99722.66;;;3.54;83.08
55604;BME280;41468;48.838;9.330;2023-01-25T09:30:37;99723.22;;;3.51;83.38
55604;BME280;41468;48.838;9.330;2023-01-25T09:33:13;99723.13;;;3.62;81.46
55604;BME280;41468;48.838;9.330;2023-01-25T09:35:46;99719.16;;;3.54;81.80
55604;BME280;41468;48.838;9.330;2023-01-25T09:38:13;99717.88;;;3.46;83.56
55604;BME280;41468;48.838;9.330;2023-01-25T09:40:45;99712.53;;;3.41;83.07
55604;BME280;41468;48.838;9.330;2023-01-25T09:43:30;99711.72;;;3.41;84.29
55604;BME280;41468;48.838;9.330;2023-01-25T09:46:13;99718.50;;;3.38;82.93
55604;BME280;41468;48.838;9.330;2023-01-25T09:48:55;99714.47;;;3.36;82.95
55604;BME280;41468;48.838;9.330;2023-01-25T09:54:19;99716.41;;;3.30;82.26
55604;BME280;41468;48.838;9.330;2023-01-25T09:56:47;99712.78;;;3.45;82.55
55604;BME280;41468;48.838;9.330;2023-01-25T09:59:18;99710.88;;;3.45;82.98
55604;BME280;41468;48.838;9.330;2023-01-25T10:02:15;99713.47;;;3.56;83.74
55604;BME280;41468;48.838;9.330;2023-01-25T10:04:45;99711.41;;;3.47;83.32
55604;BME280;41468;48.838;9.330;2023-01-25T10:07:22;99706.44;;;3.54;83.02
55604;BME280;41468;48.838;9.330;2023-01-25T10:10:05;99706.00;;;3.47;84.01
55604;BME280;41468;48.838;9.330;2023-01-25T10:12:36;99694.63;;;3.50;83.89
55604;BME280;41468;48.838;9.330;2023-01-25T10:15:19;99696.09;;;3.38;84.94
55604;BME280;41468;48.838;9.330;2023-01-25T10:18:05;99695.53;;;3.41;84.64
55604;BME280;41468;48.838;9.330;2023-01-25T10:21:07;99701.22;;;3.39;85.07
55604;BME280;41468;48.838;9.330;2023-01-25T10:26:27;99702.19;;;3.48;83.91
55604;BME280;41468;48.838;9.330;2023-01-25T10:29:10;99698.34;;;3.54;84.53
55604;BME280;41468;48.838;9.330;2023-01-25T10:32:14;99690.81;;;3.51;84.34
55604;BME280;41468;48.838;9.330;2023-01-25T10:34:48;99684.38;;;3.47;84.90
55604;BME280;41468;48.838;9.330;2023-01-25T10:37:26;99687.19;;;3.37;84.77
55604;BME280;41468;48.838;9.330;2023-01-25T10:42:43;99678.19;;;3.47;85.02
55604;BME280;41468;48.838;9.330;2023-01-25T10:45:12;99673.13;;;3.40;84.96
55604;BME280;41468;48.838;9.330;2023-01-25T10:47:46;99677.13;;;3.43;84.61
55604;BME280;41468;48.838;9.330;2023-01-25T10:58:48;99659.72;;;3.54;83.64
55604;BME280;41468;48.838;9.330;2023-01-25T11:01:29;99661.63;;;3.53;84.55
55604;BME280;41468;48.838;9.330;2023-01-25T11:03:57;99658.13;;;3.53;83.39
55604;BME280;41468;48.838;9.330;2023-01-25T11:06:36;99661.63;;;3.53;83.82
55604;BME280;41468;48.838;9.330;2023-01-25T11:11:54;99660.53;;;3.54;83.92
55604;BME280;41468;48.838;9.330;2023-01-25T11:14:27;99649.28;;;3.47;84.00
55604;BME280;41468;48.838;9.330;2023-01-25T11:16:55;99647.50;;;3.38;84.68
55604;BME280;41468;48.838;9.330;2023-01-25T11:19:36;99645.91;;;3.37;84.67
55604;BME280;41468;48.838;9.330;2023-01-25T11:22:19;99642.88;;;3.38;85.27
55604;BME280;41468;48.838;9.330;2023-01-25T11:24:46;99649.44;;;3.32;85.74
55604;BME280;41468;48.838;9.330;2023-01-25T11:27:22;99641.66;;;3.30;85.44
55604;BME280;41468;48.838;9.330;2023-01-25T11:32:39;99632.91;;;3.39;86.25
55604;BME280;41468;48.838;9.330;2023-01-25T11:35:20;99625.03;;;3.42;85.92
55604;BME280;41468;48.838;9.330;2023-01-25T11:37:58;99622.56;;;3.46;85.25
55604;BME280;41468;48.838;9.330;2023-01-25T11:40:42;99621.22;;;3.43;84.03
55604;BME280;41468;48.838;9.330;2023-01-25T11:45:55;99607.84;;;3.33;85.52
55604;BME280;41468;48.838;9.330;2023-01-25T11:51:07;99600.84;;;3.32;85.58
55604;BME280;41468;48.838;9.330;2023-01-25T12:07:08;99562.47;;;3.35;84.92
55604;BME280;41468;48.838;9.330;2023-01-25T12:15:29;99548.69;;;3.37;85.48
55604;BME280;41468;48.838;9.330;2023-01-25T12:18:30;99535.38;;;3.21;85.26
55604;BME280;41468;48.838;9.330;2023-01-25T12:26:51;99526.69;;;3.24;84.86
55604;BME280;41468;48.838;9.330;2023-01-25T12:32:27;99508.25;;;3.31;84.99
55604;BME280;41468;48.838;9.330;2023-01-25T12:35:12;99496.88;;;3.35;85.87
55604;BME280;41468;48.838;9.330;2023-01-25T12:37:42;99500.16;;;3.31;85.59
55604;BME280;41468;48.838;9.330;2023-01-25T12:40:16;99490.09;;;3.37;84.63
55604;BME280;41468;48.838;9.330;2023-01-25T12:42:51;99483.91;;;3.37;85.24
55604;BME280;41468;48.838;9.330;2023-01-25T12:45:24;99480.47;;;3.31;85.57
55604;BME280;41468;48.838;9.330;2023-01-25T12:47:56;99483.53;;;3.43;84.27
55604;BME280;41468;48.838;9.330;2023-01-25T12:50:39;99472.22;;;3.41;84.55
55604;BME280;41468;48.838;9.330;2023-01-25T12:53:19;99470.47;;;3.50;84.47
55604;BME280;41468;48.838;9.330;2023-01-25T12:55:47;99467.84;;;3.45;84.44
55604;BME280;41468;48.838;9.330;2023-01-25T13:11:46;99442.53;;;3.41;85.04
55604;BME280;41468;48.838;9.330;2023-01-25T13:16:50;99439.97;;;3.50;85.11
55604;BME280;41468;48.838;9.330;2023-01-25T13:22:01;99435.16;;;3.47;84.29
55604;BME280;41468;48.838;9.330;2023-01-25T13:24:29;99427.63;;;3.44;85.39
55604;BME280;41468;48.838;9.330;2023-01-25T13:27:22;99427.34;;;3.45;84.54
55604;BME280;41468;48.838;9.330;2023-01-25T13:29:55;99426.75;;;3.48;84.95
55604;BME280;41468;48.838;9.330;2023-01-25T13:40:00;99417.94;;;3.24;84.70
55604;BME280;41468;48.838;9.330;2023-01-25T13:42:37;99413.84;;;3.26;84.27
55604;BME280;41468;48.838;9.330;2023-01-25T13:45:19;99419.09;;;3.18;85.22
55604;BME280;41468;48.838;9.330;2023-01-25T13:50:38;99410.41;;;3.21;86.22
55604;BME280;41468;48.838;9.330;2023-01-25T13:55:47;99402.09;;;3.17;86.46
55604;BME280;41468;48.838;9.330;2023-01-25T14:03:14;99391.97;;;3.28;85.77
55604;BME280;41468;48.838;9.330;2023-01-25T14:05:48;99395.41;;;3.15;85.35
55604;BME280;41468;48.838;9.330;2023-01-25T14:08:17;99395.41;;;3.15;86.04
55604;BME280;41468;48.838;9.330;2023-01-25T14:10:56;99389.81;;;3.25;86.36
55604;BME280;41468;48.838;9.330;2023-01-25T14:13:23;99391.44;;;3.26;85.44
55604;BME280;41468;48.838;9.330;2023-01-25T14:15:59;99398.44;;;3.27;85.28
55604;BME280;41468;48.838;9.330;2023-01-25T14:18:33;99401.38;;;3.30;85.06
55604;BME280;41468;48.838;9.330;2023-01-25T14:21:19;99394.44;;;3.76;89.73
55604;BME280;41468;48.838;9.330;2023-01-25T14:23:46;99396.44;;;3.51;84.68
55604;BME280;41468;48.838;9.330;2023-01-25T14:26:19;99394.25;;;3.53;84.82
55604;BME280;41468;48.838;9.330;2023-01-25T14:28:49;99388.94;;;3.48;84.02
55604;BME280;41468;48.838;9.330;2023-01-25T14:31:30;99394.78;;;3.37;83.88
55604;BME280;41468;48.838;9.330;2023-01-25T14:33:58;99393.41;;;3.20;85.26
55604;BME280;41468;48.838;9.330;2023-01-25T14:36:27;99392.63;;;3.20;86.42
55604;BME280;41468;48.838;9.330;2023-01-25T14:38:54;99391.13;;;3.27;86.24
55604;BME280;41468;48.838;9.330;2023-01-25T14:41:36;99384.66;;;3.28;86.35
55604;BME280;41468;48.838;9.330;2023-01-25T14:44:13;99385.31;;;3.39;86.06
55604;BME280;41468;48.838;9.330;2023-01-25T14:46:40;99381.66;;;3.30;86.64
55604;BME280;41468;48.838;9.330;2023-01-25T14:49:22;99380.28;;;3.32;86.19
55604;BME280;41468;48.838;9.330;2023-01-25T14:51:58;99372.56;;;3.26;86.37
55604;BME280;41468;48.838;9.330;2023-01-25T14:54:56;99367.22;;;3.21;87.25
55604;BME280;41468;48.838;9.330;2023-01-25T14:59:56;99361.38;;;3.14;87.28
55604;BME280;41468;48.838;9.330;2023-01-25T15:02:43;99364.81;;;3.19;87.36
55604;BME280;41468;48.838;9.330;2023-01-25T15:05:45;99354.31;;;3.18;87.76
55604;BME280;41468;48.838;9.330;2023-01-25T15:08:14;99358.09;;;3.17;87.22
55604;BME280;41468;48.838;9.330;2023-01-25T15:10:51;99355.34;;;3.03;87.41
55604;BME280;41468;48.838;9.330;2023-01-25T15:13:21;99352.41;;;3.18;87.68
55604;BME280;41468;48.838;9.330;2023-01-25T15:18:41;99347.59;;;3.34;85.31
55604;BME280;41468;48.838;9.330;2023-01-25T15:23:40;99339.19;;;3.36;85.28
55604;BME280;41468;48.838;9.330;2023-01-25T15:26:28;99342.63;;;3.22;85.47
55604;BME280;41468;48.838;9.330;2023-01-25T15:28:58;99338.72;;;3.15;86.59
55604;BME280;41468;48.838;9.330;2023-01-25T15:31:30;99339.88;;;3.08;86.37